createdAt,value
2017-06-17T00:00:15.712Z,52.91
2017-06-17T00:00:56.196Z,53.09
2017-06-17T00:01:36.752Z,53.03
2017-06-17T00:02:17.269Z,52.93
2017-06-17T00:02:57.815Z,52.73
2017-06-17T00:03:38.207Z,52.71
2017-06-17T00:04:18.709Z,52.81
2017-06-17T00:04:59.205Z,53.03
2017-06-17T00:05:39.694Z,53.31
2017-06-17T00:06:20.215Z,53.13
2017-06-17T00:07:00.691Z,53.41
2017-06-17T00:07:41.204Z,52.64
2017-06-17T00:08:21.673Z,52.64
2017-06-17T00:09:02.151Z,52.55
2017-06-17T00:09:42.652Z,52.35
2017-06-17T00:10:23.227Z,52.55
2017-06-17T00:11:03.702Z,52.73
2017-06-17T00:11:44.190Z,52.83
2017-06-17T00:12:24.700Z,52.73
2017-06-17T00:13:05.254Z,52.73
2017-06-17T00:13:45.705Z,52.64
2017-06-17T00:14:26.249Z,52.55
2017-06-17T00:15:06.761Z,52.71
2017-06-17T00:15:47.238Z,53.13
2017-06-17T00:16:27.749Z,53.13
2017-06-17T00:17:08.266Z,52.61
2017-06-17T00:17:48.751Z,52.71
2017-06-17T00:18:29.206Z,52.64
2017-06-17T00:19:09.706Z,53.31
2017-06-17T00:19:50.241Z,53.19
2017-06-17T00:20:30.771Z,52.93
2017-06-17T00:21:11.220Z,53.31
2017-06-17T00:21:51.759Z,52.64
2017-06-17T00:22:32.235Z,52.64
2017-06-17T00:23:12.712Z,53.22
2017-06-17T00:23:53.238Z,52.64
2017-06-17T00:24:33.745Z,52.81
2017-06-17T00:25:14.202Z,53.09
2017-06-17T00:25:54.850Z,53.29
2017-06-17T00:26:35.301Z,53.39
2017-06-17T00:27:15.852Z,53.48
2017-06-17T00:27:56.399Z,52.81
2017-06-17T00:28:36.928Z,52.91
2017-06-17T00:29:17.437Z,52.91
2017-06-17T00:29:57.933Z,53
2017-06-17T00:30:38.433Z,53.09
2017-06-17T00:31:18.912Z,53.09
2017-06-17T00:31:59.457Z,53.09
2017-06-17T00:32:39.941Z,52.81
2017-06-17T00:33:20.442Z,52.61
2017-06-17T00:34:00.887Z,52.71
2017-06-17T00:34:41.410Z,53.19
2017-06-17T00:35:21.916Z,53.19
2017-06-17T00:36:02.388Z,52.71
2017-06-17T00:36:42.909Z,53
2017-06-17T00:37:23.328Z,53.07
2017-06-17T00:38:03.872Z,53.19
2017-06-17T00:38:44.365Z,53.58
2017-06-17T00:39:24.864Z,53.67
2017-06-17T00:40:05.329Z,53.67
2017-06-17T00:40:45.828Z,53.09
2017-06-17T00:41:26.397Z,53.19
2017-06-17T00:42:06.885Z,53.19
2017-06-17T00:42:47.337Z,53.09
2017-06-17T00:44:45.707Z,52.71
2017-06-17T00:45:26.197Z,53.19
2017-06-17T00:46:06.705Z,53.58
2017-06-17T00:46:47.204Z,53.39
2017-06-17T00:47:27.688Z,52.61
2017-06-17T00:48:08.186Z,53.29
2017-06-17T00:48:48.697Z,53.19
2017-06-17T00:49:29.215Z,53.29
2017-06-17T00:50:09.907Z,53.36
2017-06-17T00:50:50.416Z,53.48
2017-06-17T00:51:30.939Z,53.58
2017-06-17T00:52:11.421Z,53.55
2017-06-17T00:52:51.965Z,53.84
2017-06-17T00:53:32.429Z,53.94
2017-06-17T00:54:12.911Z,53.36
2017-06-17T00:54:53.454Z,53.48
2017-06-17T00:55:33.913Z,53.48
2017-06-17T00:56:14.399Z,54.32
2017-06-17T00:56:54.881Z,54.03
2017-06-17T00:57:35.346Z,54.32
2017-06-17T00:58:15.922Z,54.22
2017-06-17T00:58:56.378Z,54.32
2017-06-17T00:59:36.897Z,54.42
2017-06-17T01:00:17.372Z,54.03
2017-06-17T01:00:58.028Z,54.52
2017-06-17T01:01:38.469Z,54.13
2017-06-17T01:02:18.969Z,54.03
2017-06-17T01:02:59.480Z,54.32
2017-06-17T01:03:39.941Z,53.74
2017-06-17T01:04:20.469Z,53.77
2017-06-17T01:05:00.950Z,53.58
2017-06-17T01:05:41.734Z,53.84
2017-06-17T01:06:22.302Z,54.03
2017-06-17T01:07:02.833Z,53.94
2017-06-17T01:07:43.304Z,54.71
2017-06-17T01:08:23.861Z,54.61
2017-06-17T01:09:04.331Z,54.71
2017-06-17T01:09:44.795Z,54.52
2017-06-17T01:10:25.290Z,54.61
2017-06-17T01:11:05.834Z,54.74
2017-06-17T01:11:46.288Z,54.16
2017-06-17T01:12:26.750Z,54.22
2017-06-17T01:13:07.265Z,54.13
2017-06-17T01:13:47.786Z,54.22
2017-06-17T01:14:28.310Z,54.22
2017-06-17T01:15:08.866Z,53.74
2017-06-17T01:15:49.324Z,54.25
2017-06-17T01:16:29.879Z,54.03
2017-06-17T01:17:10.364Z,54.16
2017-06-17T01:17:50.888Z,54.25
2017-06-17T01:18:31.398Z,54.32
2017-06-17T01:19:11.920Z,54.13
2017-06-17T01:19:52.386Z,54.13
2017-06-17T01:20:32.889Z,53.45
2017-06-17T01:21:13.410Z,53.84
2017-06-17T01:21:53.863Z,53.45
2017-06-17T01:22:34.373Z,53.84
2017-06-17T01:23:14.868Z,53.45
2017-06-17T01:23:55.358Z,53.65
2017-06-17T01:24:35.856Z,53.65
2017-06-17T01:25:16.355Z,53.84
2017-06-17T01:25:56.833Z,53.84
2017-06-17T01:26:37.320Z,53.65
2017-06-17T01:27:17.836Z,53.84
2017-06-17T01:27:58.322Z,53.65
2017-06-17T01:28:38.801Z,53.36
2017-06-17T01:29:19.307Z,53.84
2017-06-17T01:29:59.808Z,53.36
2017-06-17T01:30:40.287Z,53.27
2017-06-17T01:31:20.809Z,53.94
2017-06-17T01:32:01.272Z,54.32
2017-06-17T01:32:41.790Z,54.13
2017-06-17T01:33:22.307Z,54.13
2017-06-17T01:34:02.748Z,54.13
2017-06-17T01:34:43.252Z,54.13
2017-06-17T01:35:23.776Z,54.13
2017-06-17T01:36:04.228Z,53.74
2017-06-17T01:36:44.727Z,53.74
2017-06-17T01:37:25.225Z,53.74
2017-06-17T01:38:05.737Z,53.74
2017-06-17T01:38:46.274Z,53.65
2017-06-17T01:39:26.736Z,53.65
2017-06-17T01:40:07.234Z,54.03
2017-06-17T01:40:47.735Z,54.22
2017-06-17T01:41:28.230Z,54.42
2017-06-17T01:42:08.725Z,54.22
2017-06-17T01:42:49.230Z,54.42
2017-06-17T01:43:29.718Z,54.42
2017-06-17T01:44:10.221Z,54.13
2017-06-17T01:44:50.726Z,53.74
2017-06-17T01:45:31.227Z,54.13
2017-06-17T01:46:11.770Z,53.74
2017-06-17T01:46:52.266Z,54.32
2017-06-17T01:47:32.777Z,54.13
2017-06-17T01:48:13.268Z,54.13
2017-06-17T01:48:53.802Z,54.13
2017-06-17T01:49:34.213Z,54.71
2017-06-17T01:50:14.764Z,54.13
2017-06-17T01:50:55.266Z,54.32
2017-06-17T01:51:35.736Z,54.52
2017-06-17T01:52:16.245Z,54.22
2017-06-17T01:52:56.738Z,54.03
2017-06-17T01:53:37.193Z,54.42
2017-06-17T01:54:17.740Z,54.22
2017-06-17T01:54:58.221Z,54.1
2017-06-17T01:55:38.709Z,54.87
2017-06-17T01:56:19.180Z,54.61
2017-06-17T01:56:59.740Z,54.71
2017-06-17T01:57:40.213Z,54.8
2017-06-17T01:58:20.731Z,54.52
2017-06-17T01:59:01.251Z,54.42
2017-06-17T01:59:41.747Z,54.61
2017-06-17T02:00:22.230Z,54.03
2017-06-17T02:01:02.752Z,54.68
2017-06-17T02:01:43.255Z,54.52
2017-06-17T02:02:23.760Z,54.42
2017-06-17T02:03:04.283Z,54.32
2017-06-17T02:03:44.821Z,54.42
2017-06-17T02:04:25.279Z,54.32
2017-06-17T02:05:05.804Z,54.8
2017-06-17T02:05:46.276Z,54.8
2017-06-17T02:06:26.816Z,55.16
2017-06-17T02:07:07.296Z,55.57
2017-06-17T02:07:47.825Z,55.57
2017-06-17T02:08:28.362Z,55.57
2017-06-17T02:09:08.810Z,55.48
2017-06-17T02:09:49.350Z,55.57
2017-06-17T02:10:29.850Z,55.48
2017-06-17T02:11:10.362Z,55.38
2017-06-17T02:11:50.879Z,55.57
2017-06-17T02:12:31.394Z,55.19
2017-06-17T02:13:11.948Z,55.48
2017-06-17T02:13:52.456Z,55.19
2017-06-17T02:14:32.956Z,55.67
2017-06-17T02:15:13.484Z,55.67
2017-06-17T02:15:53.960Z,55.48
2017-06-17T02:16:34.459Z,55.48
2017-06-17T02:17:14.922Z,54.42
2017-06-17T02:17:55.424Z,54.32
2017-06-17T02:18:35.925Z,54.52
2017-06-17T02:19:16.422Z,54.68
2017-06-17T02:19:56.918Z,54.2
2017-06-17T02:20:37.423Z,54
2017-06-17T02:21:17.941Z,54.49
2017-06-17T02:21:58.479Z,54.1
2017-06-17T02:22:38.943Z,54.49
2017-06-17T02:23:19.460Z,54.68
2017-06-17T02:24:00.038Z,54.42
2017-06-17T02:24:40.525Z,54.49
2017-06-17T02:25:21.144Z,54.78
2017-06-17T02:26:01.612Z,54.49
2017-06-17T02:26:42.123Z,54.49
2017-06-17T02:27:22.700Z,54.3
2017-06-17T02:28:03.147Z,54.39
2017-06-17T02:28:43.612Z,54.3
2017-06-17T02:29:24.137Z,54.2
2017-06-17T02:30:04.589Z,54.49
2017-06-17T02:30:45.085Z,54.3
2017-06-17T02:31:25.677Z,54.68
2017-06-17T02:32:06.082Z,54.49
2017-06-17T02:32:46.577Z,54.58
2017-06-17T02:33:27.151Z,54.3
2017-06-17T02:34:07.688Z,54.49
2017-06-17T02:34:48.149Z,54.58
2017-06-17T02:35:28.633Z,54.68
2017-06-17T02:36:09.176Z,54.78
2017-06-17T02:36:49.690Z,54.68
2017-06-17T02:37:30.170Z,54.87
2017-06-17T02:38:10.682Z,54.87
2017-06-17T02:38:51.195Z,54.78
2017-06-17T02:39:31.736Z,54.68
2017-06-17T02:40:12.160Z,54.87
2017-06-17T02:40:52.703Z,55.07
2017-06-17T02:41:33.208Z,54.87
2017-06-17T02:42:13.664Z,55.65
2017-06-17T02:42:54.154Z,55.65
2017-06-17T02:43:34.684Z,55.16
2017-06-17T02:44:15.196Z,55.55
2017-06-17T02:44:55.680Z,55.83
2017-06-17T02:45:36.188Z,55.55
2017-06-17T02:46:16.738Z,55.16
2017-06-17T02:46:57.162Z,55.65
2017-06-17T02:47:37.683Z,55.35
2017-06-17T02:48:18.189Z,54.97
2017-06-17T02:48:58.653Z,54.97
2017-06-17T02:49:39.169Z,55.65
2017-06-17T02:50:19.697Z,55.55
2017-06-17T02:51:00.142Z,55.55
2017-06-17T02:51:40.672Z,55.16
2017-06-17T02:52:21.142Z,55.35
2017-06-17T02:53:01.664Z,55.45
2017-06-17T02:53:42.167Z,55.26
2017-06-17T02:54:22.634Z,55.55
2017-06-17T02:55:03.122Z,55.35
2017-06-17T02:55:43.667Z,55.65
2017-06-17T02:56:24.122Z,55.74
2017-06-17T02:57:04.619Z,55.35
2017-06-17T02:57:45.109Z,55.16
2017-06-17T02:58:25.639Z,54.78
2017-06-17T02:59:06.129Z,54.68
2017-06-17T02:59:46.601Z,54.68
2017-06-17T03:00:27.091Z,54.68
2017-06-17T03:01:07.592Z,54.39
2017-06-17T03:01:48.134Z,54.78
2017-06-17T03:02:28.624Z,54.78
2017-06-17T03:03:09.120Z,54.49
2017-06-17T03:03:49.663Z,54.68
2017-06-17T03:04:30.135Z,54.78
2017-06-17T03:05:10.618Z,54.39
2017-06-17T03:05:51.146Z,54.68
2017-06-17T03:06:31.658Z,54.78
2017-06-17T03:07:12.126Z,54.49
2017-06-17T03:07:52.611Z,54.87
2017-06-17T03:08:33.067Z,54.58
2017-06-17T03:09:13.589Z,54.68
2017-06-17T03:09:54.063Z,54.49
2017-06-17T03:10:34.560Z,54.68
2017-06-17T03:11:15.047Z,55.07
2017-06-17T03:11:55.578Z,55.45
2017-06-17T03:12:36.076Z,54.97
2017-06-17T03:13:16.633Z,54.68
2017-06-17T03:13:57.101Z,55.07
2017-06-17T03:14:37.590Z,54.68
2017-06-17T03:15:18.099Z,54.68
2017-06-17T03:15:58.565Z,55.45
2017-06-17T03:16:39.095Z,55.83
2017-06-17T03:17:19.632Z,55.74
2017-06-17T03:18:00.132Z,55.55
2017-06-17T03:18:40.621Z,55.55
2017-06-17T03:19:21.147Z,54.78
2017-06-17T03:20:01.632Z,54.58
2017-06-17T03:20:42.124Z,54.97
2017-06-17T03:21:22.592Z,55.16
2017-06-17T03:22:03.109Z,55.83
2017-06-17T03:22:43.612Z,55.65
2017-06-17T03:23:24.054Z,55.45
2017-06-17T03:24:04.565Z,55.55
2017-06-17T03:24:45.077Z,55.45
2017-06-17T03:25:25.599Z,55.07
2017-06-17T03:26:06.114Z,55.13
2017-06-17T03:26:46.699Z,55.23
2017-06-17T03:27:27.205Z,55.23
2017-06-17T03:28:07.708Z,55.13
2017-06-17T03:28:48.228Z,55.71
2017-06-17T03:29:28.732Z,55.71
2017-06-17T03:30:09.226Z,55.33
2017-06-17T03:30:49.750Z,55.83
2017-06-17T03:31:30.256Z,55.74
2017-06-17T03:32:10.754Z,55.83
2017-06-17T03:32:51.232Z,55.45
2017-06-17T03:33:31.708Z,55.74
2017-06-17T03:34:12.250Z,55.65
2017-06-17T03:34:52.760Z,55.74
2017-06-17T03:35:33.272Z,55.35
2017-06-17T03:36:13.763Z,55.45
2017-06-17T03:36:54.249Z,55.26
2017-06-17T03:37:34.724Z,55.26
2017-06-17T03:38:15.211Z,55.35
2017-06-17T03:38:55.680Z,54.87
2017-06-17T03:39:36.199Z,54.97
2017-06-17T03:40:16.709Z,55.07
2017-06-17T03:40:57.202Z,55.07
2017-06-17T03:41:37.702Z,55.65
2017-06-17T03:42:18.168Z,55.45
2017-06-17T03:42:58.723Z,55.62
2017-06-17T03:43:39.208Z,55.9
2017-06-17T03:44:19.708Z,56.29
2017-06-17T03:45:00.227Z,56
2017-06-17T03:45:40.762Z,56.1
2017-06-17T03:46:21.234Z,55.71
2017-06-17T03:47:01.743Z,55.45
2017-06-17T03:47:42.249Z,55.62
2017-06-17T03:48:22.754Z,55.55
2017-06-17T03:49:03.222Z,55.83
2017-06-17T03:49:43.709Z,55.74
2017-06-17T03:50:24.202Z,55.74
2017-06-17T03:51:04.752Z,55.74
2017-06-17T03:51:45.243Z,55.45
2017-06-17T03:52:25.744Z,55.9
2017-06-17T03:53:06.241Z,55.52
2017-06-17T03:53:46.752Z,55.35
2017-06-17T03:54:27.232Z,55.13
2017-06-17T03:55:07.761Z,55.55
2017-06-17T03:55:48.265Z,55.55
2017-06-17T03:56:28.742Z,55.33
2017-06-17T03:57:09.272Z,55.71
2017-06-17T03:57:49.793Z,55.35
2017-06-17T03:58:30.262Z,55.13
2017-06-17T03:59:10.800Z,55.52
2017-06-17T03:59:51.273Z,55.55
2017-06-17T04:00:31.762Z,55.35
2017-06-17T04:01:12.290Z,55.62
2017-06-17T04:01:52.792Z,56
2017-06-17T04:02:33.284Z,55.71
2017-06-17T04:03:13.742Z,55.74
2017-06-17T04:03:54.271Z,55.71
2017-06-17T04:04:34.739Z,55.45
2017-06-17T04:05:15.234Z,55.35
2017-06-17T04:05:55.741Z,54.68
2017-06-17T04:06:36.228Z,54.49
2017-06-17T04:07:16.735Z,54.68
2017-06-17T04:07:57.273Z,54.1
2017-06-17T04:08:37.766Z,54.3
2017-06-17T04:09:18.526Z,53.65
2017-06-17T04:09:58.992Z,53.55
2017-06-17T04:10:39.534Z,53.36
2017-06-17T04:11:20.086Z,53.84
2017-06-17T04:12:00.554Z,53.74
2017-06-17T04:12:41.054Z,54.32
2017-06-17T04:13:21.536Z,54.13
2017-06-17T04:14:01.977Z,54.1
2017-06-17T04:14:42.448Z,54.58
2017-06-17T04:15:22.975Z,54.2
2017-06-17T04:16:03.445Z,53.91
2017-06-17T04:16:44.007Z,54.58
2017-06-17T04:17:24.583Z,54.3
2017-06-17T04:18:05.131Z,54.58
2017-06-17T04:18:45.560Z,54.58
2017-06-17T04:19:26.059Z,54.58
2017-06-17T04:20:06.515Z,54.8
2017-06-17T04:20:47.080Z,54.32
2017-06-17T04:21:27.572Z,54.3
2017-06-17T04:22:08.086Z,54.49
2017-06-17T04:22:48.621Z,54.68
2017-06-17T04:23:29.116Z,54.49
2017-06-17T04:24:09.577Z,54
2017-06-17T04:24:50.108Z,54.03
2017-06-17T04:25:30.568Z,53.81
2017-06-17T04:26:11.059Z,53.91
2017-06-17T04:26:51.587Z,53.72
2017-06-17T04:27:32.123Z,54
2017-06-17T04:28:12.588Z,54.46
2017-06-17T04:28:53.108Z,54.46
2017-06-17T04:29:33.574Z,54.75
2017-06-17T04:30:14.341Z,55.23
2017-06-17T04:30:54.809Z,55.33
2017-06-17T04:31:35.322Z,55.16
2017-06-17T04:32:15.794Z,54.68
2017-06-17T04:32:56.332Z,54.58
2017-06-17T04:33:36.804Z,54.49
2017-06-17T04:34:17.267Z,54.85
2017-06-17T04:34:57.774Z,54.85
2017-06-17T04:35:38.276Z,54.87
2017-06-17T04:36:18.796Z,54.65
2017-06-17T04:36:59.248Z,54.75
2017-06-17T04:37:39.772Z,54.75
2017-06-17T04:38:20.245Z,54.17
2017-06-17T04:39:00.730Z,54
2017-06-17T04:39:41.238Z,54.49
2017-06-17T04:40:21.719Z,54.68
2017-06-17T04:41:02.214Z,54.1
2017-06-17T04:41:42.847Z,54.39
2017-06-17T04:42:23.418Z,53.17
2017-06-17T04:43:03.885Z,51.32
2017-06-17T04:43:44.351Z,48.39
2017-06-17T04:44:24.814Z,45.86
2017-06-17T04:45:05.339Z,43.48
2017-06-17T04:45:45.848Z,42.05
2017-06-17T04:46:26.349Z,41.47
2017-06-17T04:47:06.844Z,41.91
2017-06-17T04:47:47.364Z,43.41
2017-06-17T04:48:27.882Z,45.04
2017-06-17T04:49:08.336Z,45.98
2017-06-17T04:49:48.937Z,46.54
2017-06-17T04:50:29.343Z,47.38
2017-06-17T04:51:09.884Z,48.54
2017-06-17T04:51:50.350Z,48.52
2017-06-17T04:52:30.826Z,48.71
2017-06-17T04:53:11.380Z,49
2017-06-17T04:53:51.838Z,49.17
2017-06-17T04:54:32.350Z,50.04
2017-06-17T04:55:12.882Z,49.84
2017-06-17T04:55:53.401Z,50.13
2017-06-17T04:56:33.914Z,50.04
2017-06-17T04:57:14.591Z,50.32
2017-06-17T04:57:55.157Z,50.3
2017-06-17T04:58:35.552Z,50.78
2017-06-17T04:59:16.079Z,50.98
2017-06-17T04:59:56.641Z,51.26
2017-06-17T05:00:37.099Z,51.56
2017-06-17T05:01:17.635Z,52.04
2017-06-17T05:01:58.158Z,51.94
2017-06-17T05:02:38.638Z,52.52
2017-06-17T05:03:19.101Z,52.04
2017-06-17T05:03:59.634Z,52.13
2017-06-17T05:04:40.125Z,51.84
2017-06-17T05:05:20.600Z,52.13
2017-06-17T05:06:01.137Z,52.04
2017-06-17T05:06:41.684Z,51.94
2017-06-17T05:07:22.075Z,52.13
2017-06-17T05:08:02.576Z,51.75
2017-06-17T05:08:43.111Z,51.75
2017-06-17T05:09:23.590Z,51.46
2017-06-17T05:10:04.347Z,51.75
2017-06-17T05:10:44.876Z,51.84
2017-06-17T05:11:25.366Z,52.04
2017-06-17T05:12:05.875Z,52.04
2017-06-17T05:12:46.417Z,52.01
2017-06-17T05:13:26.913Z,51.94
2017-06-17T05:14:07.396Z,52.04
2017-06-17T05:14:47.871Z,52.61
2017-06-17T05:15:28.363Z,52.52
2017-06-17T05:16:09.055Z,52.3
2017-06-17T05:16:49.473Z,52.01
2017-06-17T05:17:30.001Z,52.2
2017-06-17T05:18:10.761Z,52.13
2017-06-17T05:18:51.002Z,51.36
2017-06-17T05:19:31.456Z,51.36
2017-06-17T05:20:11.999Z,51.94
2017-06-17T05:20:52.511Z,52.23
2017-06-17T05:21:32.985Z,51.07
2017-06-17T05:22:14.462Z,51.65
2017-06-17T05:22:54.922Z,51.46
2017-06-17T05:23:35.402Z,51.56
2017-06-17T05:24:15.852Z,51.05
2017-06-17T05:24:56.377Z,51.36
2017-06-17T05:25:36.941Z,51.26
2017-06-17T05:26:17.783Z,50.71
2017-06-17T05:26:58.321Z,49.87
2017-06-17T05:27:38.797Z,48.76
2017-06-17T05:28:19.317Z,46.88
2017-06-17T05:28:59.803Z,45.98
2017-06-17T05:29:40.319Z,46.54
2017-06-17T05:30:20.798Z,47.02
2017-06-17T05:31:01.312Z,47.67
2017-06-17T05:31:41.798Z,47.96
2017-06-17T05:32:22.308Z,48.74
2017-06-17T05:33:02.827Z,48.74
2017-06-17T05:33:43.273Z,48.64
2017-06-17T05:34:23.779Z,48.35
2017-06-17T05:35:04.300Z,48.23
2017-06-17T05:35:44.830Z,48.88
2017-06-17T05:36:25.412Z,49
2017-06-17T05:37:05.773Z,49.07
2017-06-17T05:37:46.413Z,49.07
2017-06-17T05:38:26.897Z,49.84
2017-06-17T05:39:07.460Z,50.04
2017-06-17T05:39:47.983Z,50.4
2017-06-17T05:40:28.490Z,51.07
2017-06-17T05:41:08.947Z,50.98
2017-06-17T05:41:49.439Z,51.17
2017-06-17T05:42:29.942Z,50.98
2017-06-17T05:43:10.627Z,51.17
2017-06-17T05:43:51.109Z,51.26
2017-06-17T05:44:31.685Z,51.17
2017-06-17T05:45:12.130Z,51.07
2017-06-17T05:45:52.655Z,50.98
2017-06-17T05:46:33.208Z,50.88
2017-06-17T05:47:13.702Z,51.17
2017-06-17T05:47:54.138Z,51.17
2017-06-17T05:48:34.814Z,51.17
2017-06-17T05:49:15.142Z,51.26
2017-06-17T05:49:55.639Z,51.46
2017-06-17T05:50:36.163Z,51.46
2017-06-17T05:51:17.117Z,51.56
2017-06-17T05:51:57.575Z,51.56
2017-06-17T05:52:38.044Z,51.07
2017-06-17T05:53:18.813Z,50.26
2017-06-17T05:53:59.286Z,48.37
2017-06-17T05:54:39.782Z,46.95
2017-06-17T05:55:20.314Z,46.17
2017-06-17T05:56:00.790Z,45.64
2017-06-17T05:56:41.300Z,44.04
2017-06-17T05:57:21.810Z,41.97
2017-06-17T05:58:02.326Z,40.08
2017-06-17T05:58:42.793Z,38.17
2017-06-17T05:59:23.327Z,36.55
2017-06-17T06:00:03.800Z,35.89
2017-06-17T06:00:44.379Z,34.95
2017-06-17T06:01:24.841Z,34.47
2017-06-17T06:02:05.394Z,34.47
2017-06-17T06:02:46.131Z,34.72
2017-06-17T06:03:26.627Z,35.11
2017-06-17T06:04:07.362Z,35.76
2017-06-17T06:04:47.962Z,36.54
2017-06-17T06:05:28.488Z,37.1
2017-06-17T06:06:08.949Z,37.94
2017-06-17T06:06:49.483Z,38.91
2017-06-17T06:07:29.923Z,39.28
2017-06-17T06:08:11.731Z,39.67
2017-06-17T06:08:52.266Z,39.65
2017-06-17T06:09:32.720Z,40.33
2017-06-17T06:10:13.235Z,40.42
2017-06-17T06:10:53.683Z,40.4
2017-06-17T06:11:34.161Z,40.13
2017-06-17T06:12:14.701Z,40.13
2017-06-17T06:12:55.142Z,40.59
2017-06-17T06:13:35.681Z,41.45
2017-06-17T06:14:16.175Z,42.22
2017-06-17T06:14:56.675Z,42.03
2017-06-17T06:15:37.147Z,41.91
2017-06-17T06:16:17.684Z,42.4
2017-06-17T06:16:58.201Z,42.78
2017-06-17T06:17:40.568Z,42.97
2017-06-17T06:18:21.058Z,43.07
2017-06-17T06:19:01.564Z,42.49
2017-06-17T06:19:41.988Z,42.3
2017-06-17T06:20:22.493Z,42.1
2017-06-17T06:21:02.998Z,41.93
2017-06-17T06:21:43.456Z,41.91
2017-06-17T06:22:23.981Z,42.13
2017-06-17T06:23:04.556Z,42.03
2017-06-17T06:23:45.058Z,41.06
2017-06-17T06:24:25.641Z,41.35
2017-06-17T06:25:06.104Z,41.16
2017-06-17T06:25:46.667Z,41.25
2017-06-17T06:26:27.201Z,41.25
2017-06-17T06:27:07.655Z,41.06
2017-06-17T06:27:48.298Z,41.16
2017-06-17T06:28:28.854Z,41.45
2017-06-17T06:29:09.431Z,42.03
2017-06-17T06:29:49.954Z,41.91
2017-06-17T06:30:30.488Z,41.55
2017-06-17T06:31:10.948Z,41.16
2017-06-17T06:31:51.417Z,40.38
2017-06-17T06:32:34.481Z,40.56
2017-06-17T06:33:12.715Z,40.28
2017-06-17T06:33:53.109Z,40.48
2017-06-17T06:34:33.671Z,40.36
2017-06-17T06:35:14.452Z,39.97
2017-06-17T06:35:55.038Z,40.56
2017-06-17T06:36:35.532Z,40.65
2017-06-17T06:37:16.066Z,40.48
2017-06-17T06:37:56.547Z,40.58
2017-06-17T06:38:37.026Z,40.58
2017-06-17T06:39:17.487Z,40.48
2017-06-17T06:39:57.981Z,40.67
2017-06-17T06:40:38.480Z,40.38
2017-06-17T06:41:19.078Z,40.77
2017-06-17T06:41:59.633Z,40.19
2017-06-17T06:42:40.125Z,40.21
2017-06-17T06:43:20.685Z,40.31
2017-06-17T06:44:02.473Z,40.38
2017-06-17T06:44:43.064Z,39.9
2017-06-17T06:45:23.516Z,39.92
2017-06-17T06:46:04.217Z,40.09
2017-06-17T06:46:44.694Z,39.43
2017-06-17T06:47:25.312Z,39.92
2017-06-17T06:48:05.693Z,40.21
2017-06-17T06:48:46.225Z,40.4
2017-06-17T06:49:26.913Z,40.21
2017-06-17T06:50:07.222Z,40.4
2017-06-17T06:50:47.686Z,40.4
2017-06-17T06:51:28.199Z,40.4
2017-06-17T06:52:08.721Z,40.11
2017-06-17T06:52:49.186Z,40.01
2017-06-17T06:53:29.679Z,40.11
2017-06-17T06:54:10.711Z,40.11
2017-06-17T06:54:51.314Z,40.01
2017-06-17T06:55:32.133Z,39.62
2017-06-17T06:56:12.635Z,39.8
2017-06-17T06:56:53.180Z,39.92
2017-06-17T06:57:33.693Z,40.01
2017-06-17T06:58:14.344Z,39.82
2017-06-17T06:58:54.736Z,39.62
2017-06-17T06:59:35.191Z,39.62
2017-06-17T07:00:15.738Z,39.9
2017-06-17T07:00:56.290Z,39.41
2017-06-17T07:01:36.781Z,39.61
2017-06-17T07:02:17.319Z,39.51
2017-06-17T07:02:58.475Z,40
2017-06-17T07:03:38.835Z,39.51
2017-06-17T07:04:19.338Z,39.61
2017-06-17T07:05:00.430Z,39.14
2017-06-17T07:05:40.899Z,39.22
2017-06-17T07:07:34.155Z,38.83
2017-06-17T07:08:14.663Z,38.76
2017-06-17T07:08:55.310Z,38.76
2017-06-17T07:09:35.793Z,37.98
2017-06-17T07:10:16.532Z,37.98
2017-06-17T07:10:57.085Z,37.98
2017-06-17T07:11:37.607Z,37.9
2017-06-17T07:12:18.739Z,37.71
2017-06-17T07:12:59.394Z,37.71
2017-06-17T07:13:39.951Z,37.81
2017-06-17T07:14:20.707Z,38.29
2017-06-17T07:15:01.295Z,38.09
2017-06-17T07:15:41.815Z,38
2017-06-17T07:16:22.212Z,38.12
2017-06-17T07:17:02.766Z,38.02
2017-06-17T07:17:43.328Z,38.31
2017-06-17T07:18:23.920Z,38.21
2017-06-17T07:19:04.427Z,38.31
2017-06-17T07:19:44.893Z,38.12
2017-06-17T07:20:25.420Z,37.92
2017-06-17T07:21:06.215Z,38.02
2017-06-17T07:21:46.753Z,38.02
2017-06-17T07:22:27.326Z,37.81
2017-06-17T07:23:07.919Z,37.9
2017-06-17T07:23:48.373Z,37.92
2017-06-17T07:24:28.952Z,37.82
2017-06-17T07:25:09.367Z,38.09
2017-06-17T07:25:50.693Z,38.19
2017-06-17T07:26:31.242Z,38.19
2017-06-17T07:27:12.065Z,38.19
2017-06-17T07:27:53.602Z,38.29
2017-06-17T07:28:33.681Z,38.19
2017-06-17T07:29:14.092Z,38.39
2017-06-17T07:29:54.694Z,38.58
2017-06-17T07:30:35.409Z,38.58
2017-06-17T07:31:15.906Z,38.58
2017-06-17T07:31:56.663Z,38.58
2017-06-17T07:32:37.274Z,38.68
2017-06-17T07:33:18.154Z,38.78
2017-06-17T07:33:58.720Z,38.68
2017-06-17T07:34:39.310Z,38.39
2017-06-17T07:35:19.842Z,38.39
2017-06-17T07:36:00.308Z,38.95
2017-06-17T07:36:40.799Z,38.76
2017-06-17T07:37:21.372Z,38.66
2017-06-17T07:38:02.129Z,38.68
2017-06-17T07:38:42.575Z,38.48
2017-06-17T07:39:23.207Z,38.46
2017-06-17T07:40:03.707Z,38.56
2017-06-17T07:40:44.202Z,38.37
2017-06-17T07:41:24.818Z,38.56
2017-06-17T07:42:05.239Z,38.85
2017-06-17T07:42:45.850Z,38.85
2017-06-17T07:43:26.416Z,39.04
2017-06-17T07:44:06.898Z,39.04
2017-06-17T07:44:48.058Z,39.04
2017-06-17T07:45:28.590Z,38.95
2017-06-17T07:46:09.221Z,39.04
2017-06-17T07:46:50.156Z,39.26
2017-06-17T07:47:30.597Z,38.76
2017-06-17T07:48:11.127Z,38.76
2017-06-17T07:48:51.664Z,39.04
2017-06-17T07:49:32.286Z,39.04
2017-06-17T07:50:12.922Z,39.51
2017-06-17T07:50:53.493Z,39.61
2017-06-17T07:51:34.064Z,39.12
2017-06-17T07:52:14.521Z,39.14
2017-06-17T07:52:55.075Z,38.85
2017-06-17T07:53:35.673Z,38.95
2017-06-17T07:54:16.240Z,39.14
2017-06-17T07:54:56.697Z,39.14
2017-06-17T07:55:37.174Z,39.51
2017-06-17T07:56:17.907Z,39.32
2017-06-17T07:56:58.890Z,39.51
2017-06-17T07:57:39.670Z,39.34
2017-06-17T07:58:20.574Z,39.04
2017-06-17T07:59:01.119Z,39.04
2017-06-17T07:59:41.567Z,39.16
2017-06-17T08:00:22.578Z,38.96
2017-06-17T08:01:03.589Z,38.87
2017-06-17T08:01:43.997Z,39.26
2017-06-17T08:02:24.592Z,38.87
2017-06-17T08:03:05.128Z,38.87
2017-06-17T08:03:45.685Z,38.48
2017-06-17T08:04:26.226Z,38.68
2017-06-17T08:05:06.690Z,38.68
2017-06-17T08:05:47.148Z,38.96
2017-06-17T08:06:27.960Z,39.84
2017-06-17T08:07:08.183Z,39.45
2017-06-17T08:07:48.971Z,39.55
2017-06-17T08:08:29.451Z,39.84
2017-06-17T08:09:09.924Z,39.36
2017-06-17T08:09:50.707Z,39.34
2017-06-17T08:10:31.169Z,39.53
2017-06-17T08:11:12.047Z,39.34
2017-06-17T08:11:55.288Z,40.01
2017-06-17T08:13:53.360Z,39.53
2017-06-17T08:14:41.148Z,39.53
2017-06-17T08:17:40.516Z,40.31
2017-06-17T08:18:20.918Z,40.19
2017-06-17T08:19:01.469Z,40.28
2017-06-17T08:19:42.061Z,41.16
2017-06-17T08:20:22.581Z,41.42
2017-06-17T08:21:03.099Z,41.42
2017-06-17T08:21:43.682Z,41.72
2017-06-17T08:22:24.889Z,42
2017-06-17T08:23:05.364Z,41.91
2017-06-17T08:23:45.914Z,41.62
2017-06-17T08:24:26.462Z,40.56
2017-06-17T08:25:07.325Z,40.65
2017-06-17T08:25:48.056Z,39.8
2017-06-17T08:26:28.390Z,40.86
2017-06-17T08:28:48.494Z,40.46
2017-06-17T08:29:42.828Z,40.38
2017-06-17T08:30:22.100Z,40.48
2017-06-17T08:31:03.134Z,40.28
2017-06-17T08:31:43.519Z,40.38
2017-06-17T08:32:24.080Z,40.28
2017-06-17T08:33:04.530Z,40.77
2017-06-17T08:33:45.000Z,40.94
2017-06-17T08:34:25.713Z,41.55
2017-06-17T08:35:06.103Z,40.96
2017-06-17T08:35:46.978Z,40.96
2017-06-17T08:36:27.519Z,40.28
2017-06-17T08:37:08.219Z,39.8
2017-06-17T08:37:48.631Z,39.41
2017-06-17T08:38:29.190Z,40.09
2017-06-17T08:39:09.688Z,39.51
2017-06-17T08:39:50.188Z,40.09
2017-06-17T08:40:30.708Z,39.32
2017-06-17T08:41:11.217Z,39.41
2017-06-17T08:41:51.736Z,39.29
2017-06-17T08:42:32.244Z,39.8
2017-06-17T08:43:12.749Z,40.07
2017-06-17T08:43:53.287Z,39.61
2017-06-17T08:44:33.863Z,39.7
2017-06-17T08:45:14.390Z,39.51
2017-06-17T08:45:54.894Z,39.32
2017-06-17T08:46:35.413Z,39.61
2017-06-17T08:47:15.932Z,39.51
2017-06-17T08:47:56.474Z,39.61
2017-06-17T08:48:36.975Z,38.73
2017-06-17T08:49:17.533Z,38.71
2017-06-17T08:49:58.382Z,38.81
2017-06-17T08:50:38.885Z,39.11
2017-06-17T08:51:19.386Z,38.54
2017-06-17T08:51:59.937Z,38.71